| time (UTC) | temp F | wind direction | speed MPH | gust MPH | rain 1hr in | rain 24hr in | rain mn in | humidity % | barometer mb |
| 20260504231517 | 59 | 62 | 4.0 | 9.0 | 0.00 | 0.00 | 0.00 | 39 | 1009.9 |
| 20260504231026 | 59 | 78 | 5.0 | 9.0 | 0.00 | 0.00 | 0.00 | 39 | 1009.8 |
| 20260504230525 | 59 | 55 | 4.0 | 8.0 | 0.00 | 0.00 | 0.00 | 40 | 1009.8 |
| 20260504230033 | 59 | 336 | 2.0 | 9.0 | 0.00 | 0.00 | 0.00 | 40 | 1009.8 |
| 20260504225539 | 59 | 85 | 3.0 | 9.0 | 0.00 | 0.00 | 0.00 | 41 | 1009.7 |
| 20260504225020 | 59 | 45 | 5.0 | 9.0 | 0.00 | 0.00 | 0.00 | 40 | 1009.8 |
| 20260504224520 | 59 | 66 | 6.0 | 9.0 | 0.00 | 0.00 | 0.00 | 40 | 1009.7 |
| 20260504224027 | 59 | 101 | 2.0 | 10.0 | 0.00 | 0.00 | 0.00 | 40 | 1009.8 |
| 20260504223555 | 59 | 98 | 5.0 | 10.0 | 0.00 | 0.00 | 0.00 | 40 | 1009.7 |
| 20260504223014 | 59 | 104 | 3.0 | 7.0 | 0.00 | 0.00 | 0.00 | 39 | 1009.7 |
| 20260504222514 | 59 | 62 | 3.0 | 9.0 | 0.00 | 0.00 | 0.00 | 39 | 1009.8 |
| 20260504222021 | 60 | 79 | 5.0 | 12.0 | 0.00 | 0.00 | 0.00 | 40 | 1009.9 |
| 20260504221522 | 60 | 43 | 5.0 | 12.0 | 0.00 | 0.00 | 0.00 | 39 | 1009.9 |
| 20260504221051 | 60 | 339 | 4.0 | 9.0 | 0.00 | 0.00 | 0.00 | 39 | 1010.0 |
| 20260504220531 | 60 | 340 | 5.0 | 11.0 | 0.00 | 0.00 | 0.00 | 39 | 1010.1 |
| 20260504220039 | 60 | 341 | 7.0 | 11.0 | 0.00 | 0.00 | 0.00 | 39 | 1010.0 |
| 20260504215519 | 60 | 343 | 5.0 | 10.0 | 0.00 | 0.00 | 0.00 | 40 | 1010.1 |
| 20260504215026 | 59 | 309 | 5.0 | 10.0 | 0.00 | 0.00 | 0.00 | 39 | 1010.2 |
| 20260504214547 | 60 | 328 | 5.0 | 10.0 | 0.00 | 0.00 | 0.00 | 39 | 1010.2 |
| 20260504214013 | 60 | 320 | 3.0 | 11.0 | 0.00 | 0.00 | 0.00 | 39 | 1010.2 |
| 20260504213541 | 60 | 346 | 5.0 | 11.0 | 0.00 | 0.00 | 0.00 | 39 | 1010.2 |
| 20260504213021 | 60 | 321 | 7.0 | 16.0 | 0.00 | 0.00 | 0.00 | 39 | 1010.2 |
| 20260504212523 | 60 | 335 | 10.0 | 16.0 | 0.00 | 0.00 | 0.00 | 38 | 1010.2 |
| 20260504212013 | 61 | 334 | 9.0 | 14.0 | 0.00 | 0.00 | 0.00 | 38 | 1010.3 |
| 20260504211513 | 61 | 22 | 7.0 | 12.0 | 0.00 | 0.00 | 0.00 | 38 | 1010.3 |
| 20260504211014 | 61 | 232 | 6.0 | 15.0 | 0.00 | 0.00 | 0.00 | 39 | 1010.4 |
| 20260504210542 | 60 | 62 | 3.0 | 15.0 | 0.00 | 0.00 | 0.00 | 41 | 1010.6 |
| 20260504210047 | 60 | 70 | 9.0 | 15.0 | 0.00 | 0.00 | 0.00 | 39 | 1010.6 |
| 20260504205527 | 60 | 57 | 7.0 | 15.0 | 0.00 | 0.00 | 0.00 | 39 | 1010.6 |
| 20260504205035 | 61 | 43 | 10.0 | 15.0 | 0.00 | 0.00 | 0.00 | 39 | 1010.6 |
| 20260504204515 | 61 | 62 | 9.0 | 14.0 | 0.00 | 0.00 | 0.00 | 38 | 1010.5 |
| 20260504204016 | 61 | 64 | 7.0 | 15.0 | 0.00 | 0.00 | 0.00 | 38 | 1010.4 |
| 20260504203524 | 61 | 49 | 6.0 | 14.0 | 0.00 | 0.00 | 0.00 | 37 | 1010.4 |
| 20260504203027 | 61 | 72 | 6.0 | 11.0 | 0.00 | 0.00 | 0.00 | 37 | 1010.5 |
| 20260504202527 | 61 | 82 | 5.0 | 9.0 | 0.00 | 0.00 | 0.00 | 36 | 1010.6 |
| 20260504202017 | 61 | 104 | 3.0 | 8.0 | 0.00 | 0.00 | 0.00 | 37 | 1010.6 |
| 20260504201520 | 60 | 355 | 4.0 | 11.0 | 0.00 | 0.00 | 0.00 | 36 | 1010.7 |
| 20260504201049 | 61 | 104 | 4.0 | 13.0 | 0.00 | 0.00 | 0.00 | 36 | 1010.7 |
| 20260504200528 | 61 | 115 | 8.0 | 13.0 | 0.00 | 0.00 | 0.00 | 36 | 1010.7 |
| 20260504200036 | 61 | 68 | 5.0 | 11.0 | 0.00 | 0.00 | 0.00 | 37 | 1010.6 |
| 20260504195516 | 61 | 20 | 5.0 | 10.0 | 0.00 | 0.00 | 0.00 | 36 | 1010.7 |
| 20260504195019 | 61 | 62 | 5.0 | 11.0 | 0.00 | 0.00 | 0.00 | 37 | 1010.8 |
| 20260504194528 | 61 | 321 | 4.0 | 11.0 | 0.00 | 0.00 | 0.00 | 37 | 1010.8 |
| 20260504194029 | 60 | 55 | 4.0 | 13.0 | 0.00 | 0.00 | 0.00 | 37 | 1010.8 |
| 20260504193537 | 60 | 59 | 7.0 | 13.0 | 0.00 | 0.00 | 0.00 | 38 | 1010.8 |
| 20260504193041 | 60 | 318 | 5.0 | 13.0 | 0.00 | 0.00 | 0.00 | 37 | 1010.8 |
| 20260504192527 | 60 | 37 | 7.0 | 13.0 | 0.00 | 0.00 | 0.00 | 36 | 1010.6 |
| 20260504192055 | 61 | 61 | 6.0 | 18.0 | 0.00 | 0.00 | 0.00 | 37 | 1010.6 |
| 20260504191537 | 61 | 51 | 8.0 | 18.0 | 0.00 | 0.00 | 0.00 | 36 | 1010.6 |
| 20260504191027 | 61 | 75 | 8.0 | 17.0 | 0.00 | 0.00 | 0.00 | 35 | 1010.4 |
| 20260504190529 | 61 | 32 | 9.0 | 17.0 | 0.00 | 0.00 | 0.00 | 35 | 1010.3 |
| 20260504190031 | 62 | 54 | 13.0 | 24.0 | 0.00 | 0.00 | 0.00 | 35 | 1010.3 |
| 20260504185538 | 62 | 22 | 11.0 | 24.0 | 0.00 | 0.00 | 0.00 | 34 | 1010.2 |
| 20260504185013 | 63 | 50 | 14.0 | 22.0 | 0.00 | 0.00 | 0.00 | 34 | 1010.2 |
| 20260504184519 | 63 | 79 | 13.0 | 23.0 | 0.00 | 0.00 | 0.00 | 34 | 1010.2 |
| 20260504184048 | 63 | 74 | 12.0 | 21.0 | 0.00 | 0.00 | 0.00 | 34 | 1010.3 |
| 20260504183530 | 63 | 70 | 12.0 | 20.0 | 0.00 | 0.00 | 0.00 | 33 | 1010.2 |
| 20260504183041 | 63 | 60 | 12.0 | 25.0 | 0.00 | 0.00 | 0.00 | 34 | 1010.2 |
| 20260504182524 | 63 | 66 | 12.0 | 25.0 | 0.00 | 0.00 | 0.00 | 34 | 1010.2 |
| 20260504182053 | 64 | 64 | 11.0 | 24.0 | 0.00 | 0.00 | 0.00 | 32 | 1010.2 |
| 20260504181513 | 65 | 75 | 12.0 | 21.0 | 0.00 | 0.00 | 0.00 | 32 | 1010.2 |
| 20260504181016 | 64 | 57 | 9.0 | 23.0 | 0.00 | 0.00 | 0.00 | 33 | 1010.1 |
| 20260504180544 | 63 | 85 | 10.0 | 27.0 | 0.00 | 0.00 | 0.00 | 32 | 1010.0 |
| 20260504180026 | 65 | 55 | 14.0 | 27.0 | 0.00 | 0.00 | 0.00 | 30 | 1010.0 |
| 20260504175535 | 67 | 85 | 13.0 | 22.0 | 0.00 | 0.00 | 0.00 | 28 | 1010.0 |
| 20260504175034 | 68 | 49 | 12.0 | 22.0 | 0.00 | 0.00 | 0.00 | 27 | 1009.8 |
| 20260504174520 | 67 | 57 | 11.0 | 27.0 | 0.00 | 0.00 | 0.00 | 28 | 1009.8 |
| 20260504174043 | 67 | 68 | 13.0 | 27.0 | 0.00 | 0.00 | 0.00 | 27 | 1009.8 |
| 20260504173531 | 69 | 37 | 10.0 | 26.0 | 0.00 | 0.00 | 0.00 | 23 | 1009.7 |
| 20260504173012 | 69 | 54 | 7.0 | 16.0 | 0.00 | 0.00 | 0.00 | 20 | 1009.7 |
| 20260504172541 | 68 | 324 | 8.0 | 17.0 | 0.00 | 0.00 | 0.00 | 22 | 1009.6 |
| 20260504172029 | 68 | 338 | 7.0 | 17.0 | 0.00 | 0.00 | 0.00 | 21 | 1009.8 |
| 20260504171529 | 69 | 358 | 11.0 | 16.0 | 0.00 | 0.00 | 0.00 | 21 | 1009.7 |
| 20260504171031 | 68 | 314 | 9.0 | 14.0 | 0.00 | 0.00 | 0.00 | 22 | 1009.6 |
| 20260504170512 | 68 | 31 | 4.0 | 12.0 | 0.00 | 0.00 | 0.00 | 21 | 1009.6 |
| 20260504151022 | 63 | 338 | 8.0 | 14.0 | 0.00 | 0.00 | 0.00 | 24 | 1009.9 |
| 20260504150531 | 63 | 344 | 9.0 | 14.0 | 0.00 | 0.00 | 0.00 | 24 | 1009.9 |
| 20260504141039 | 57 | 355 | 5.0 | 8.0 | 0.00 | 0.00 | 0.00 | 33 | 1009.9 |
| 20260504140518 | 56 | 332 | 2.0 | 7.0 | 0.00 | 0.00 | 0.00 | 35 | 1009.9 |
| 20260504130536 | 47 | 148 | 4.0 | 6.0 | 0.00 | 0.00 | 0.00 | 52 | 1009.8 |
| 20260504110531 | 39 | 257 | 4.0 | 7.0 | 0.00 | 0.00 | 0.00 | 69 | 1009.7 |
| 20260504100522 | 37 | 230 | 2.0 | 3.0 | 0.00 | 0.00 | 0.00 | 67 | 1010.1 |
| 20260504081529 | 36 | 249 | 1.0 | 5.0 | 0.00 | 0.00 | 0.00 | 71 | 1011.3 |
| 20260504081038 | 37 | 243 | 2.0 | 4.0 | 0.00 | 0.00 | 0.00 | 71 | 1011.3 |
| 20260504080520 | 37 | 228 | 1.0 | 5.0 | 0.00 | 0.00 | 0.00 | 71 | 1011.4 |
| 20260504050534 | 40 | 164 | 1.0 | 3.0 | 0.00 | 0.00 | 0.00 | 61 | 1012.9 |
| 20260504050014 | 40 | 247 | 1.0 | 3.0 | 0.00 | 0.00 | 0.00 | 61 | 1013.0 |
| 20260504045522 | 41 | 232 | 2.0 | 3.0 | 0.00 | 0.00 | 0.00 | 61 | 1013.0 |
| 20260504045023 | 41 | 216 | 0.0 | 2.0 | 0.00 | 0.00 | 0.00 | 60 | 1013.1 |
| 20260504044534 | 41 | 290 | 1.0 | 2.0 | 0.00 | 0.00 | 0.00 | 60 | 1013.0 |
| 20260504044013 | 41 | 131 | 1.0 | 2.0 | 0.00 | 0.00 | 0.00 | 59 | 1013.0 |
| 20260504043514 | 41 | 62 | 0.0 | 2.0 | 0.00 | 0.00 | 0.00 | 58 | 1013.1 |
| 20260504043022 | 42 | 276 | 1.0 | 2.0 | 0.00 | 0.00 | 0.00 | 58 | 1013.1 |
| 20260504042550 | 42 | 320 | 1.0 | 2.0 | 0.00 | 0.00 | 0.00 | 57 | 1013.1 |
| 20260504042050 | 42 | 104 | 0.0 | 2.0 | 0.00 | 0.00 | 0.00 | 57 | 1013.1 |
| 20260504041538 | 43 | 216 | 1.0 | 2.0 | 0.00 | 0.00 | 0.00 | 56 | 1013.2 |
| 20260504041018 | 43 | 104 | 0.0 | 2.0 | 0.00 | 0.00 | 0.00 | 55 | 1013.2 |
| 20260504040520 | 43 | 131 | 0.0 | 2.0 | 0.00 | 0.00 | 0.00 | 54 | 1013.1 |
| 20260504040048 | 44 | 62 | 0.0 | 1.0 | 0.00 | 0.00 | 0.00 | 52 | 1013.2 |
| 20260504035527 | 45 | 320 | 0.0 | 1.0 | 0.00 | 0.00 | 0.00 | 51 | 1013.2 |
| 20260504035034 | 45 | 189 | 0.0 | 1.0 | 0.00 | 0.00 | 0.00 | 50 | 1013.1 |
| 20260504034535 | 46 | 276 | 0.0 | 1.0 | 0.00 | 0.00 | 0.00 | 49 | 1013.1 |
| 20260504034022 | 47 | 232 | 0.0 | 2.0 | 0.00 | 0.00 | 0.00 | 48 | 1013.1 |
| 20260504033538 | 47 | 232 | 0.0 | 2.0 | 0.00 | 0.00 | 0.00 | 47 | 1013.0 |
| 20260504033025 | 48 | 336 | 1.0 | 3.0 | 0.00 | 0.00 | 0.00 | 46 | 1012.9 |
| 20260504032526 | 49 | 104 | 1.0 | 5.0 | 0.00 | 0.00 | 0.00 | 46 | 1012.9 |
| 20260504032033 | 49 | 116 | 3.0 | 7.0 | 0.00 | 0.00 | 0.00 | 46 | 1012.9 |
| 20260504031518 | 50 | 116 | 4.0 | 7.0 | 0.00 | 0.00 | 0.00 | 44 | 1012.7 |
| 20260504031019 | 51 | 115 | 3.0 | 6.0 | 0.00 | 0.00 | 0.00 | 43 | 1012.8 |
| 20260504030526 | 51 | 121 | 4.0 | 7.0 | 0.00 | 0.00 | 0.00 | 42 | 1012.8 |
| 20260504030027 | 52 | 113 | 5.0 | 10.0 | 0.00 | 0.00 | 0.00 | 42 | 1012.8 |
| 20260504025539 | 52 | 83 | 6.0 | 10.0 | 0.00 | 0.00 | 0.00 | 41 | 1012.8 |
| 20260504025017 | 53 | 101 | 5.0 | 10.0 | 0.00 | 0.00 | 0.00 | 41 | 1012.8 |
| 20260504024517 | 53 | 98 | 6.0 | 10.0 | 0.00 | 0.00 | 0.00 | 40 | 1012.8 |
| 20260504024045 | 53 | 103 | 7.0 | 9.0 | 0.00 | 0.00 | 0.00 | 39 | 1012.8 |
| 20260504023525 | 54 | 70 | 4.0 | 7.0 | 0.00 | 0.00 | 0.00 | 39 | 1012.8 |
| 20260504023033 | 54 | 82 | 3.0 | 8.0 | 0.00 | 0.00 | 0.00 | 37 | 1012.8 |
| 20260504022513 | 55 | 97 | 4.0 | 8.0 | 0.00 | 0.00 | 0.00 | 37 | 1012.7 |
| 20260504022014 | 56 | 85 | 4.0 | 8.0 | 0.00 | 0.00 | 0.00 | 36 | 1012.7 |
| 20260504021522 | 56 | 110 | 4.0 | 10.0 | 0.00 | 0.00 | 0.00 | 35 | 1012.7 |
| 20260504021023 | 57 | 88 | 4.0 | 10.0 | 0.00 | 0.00 | 0.00 | 34 | 1012.6 |
| 20260504020546 | 58 | 82 | 6.0 | 10.0 | 0.00 | 0.00 | 0.00 | 34 | 1012.5 |
| 20260504020053 | 59 | 99 | 5.0 | 11.0 | 0.00 | 0.00 | 0.00 | 32 | 1012.5 |
| 20260504015513 | 60 | 70 | 5.0 | 11.0 | 0.00 | 0.00 | 0.00 | 31 | 1012.5 |
| 20260504015014 | 60 | 95 | 6.0 | 13.0 | 0.00 | 0.00 | 0.00 | 30 | 1012.4 |
| 20260504014522 | 61 | 60 | 7.0 | 17.0 | 0.00 | 0.00 | 0.00 | 29 | 1012.4 |
| 20260504014022 | 62 | 62 | 9.0 | 17.0 | 0.00 | 0.00 | 0.00 | 28 | 1012.4 |
| 20260504013523 | 63 | 52 | 9.0 | 16.0 | 0.00 | 0.00 | 0.00 | 24 | 1012.3 |
| 20260504013015 | 64 | 45 | 3.0 | 9.0 | 0.00 | 0.00 | 0.00 | 22 | 1012.2 |
| 20260504012514 | 64 | 22 | 4.0 | 10.0 | 0.00 | 0.00 | 0.00 | 22 | 1012.0 |
| 20260504012017 | 64 | 89 | 5.0 | 10.0 | 0.00 | 0.00 | 0.00 | 23 | 1012.2 |
| 20260504011526 | 64 | 66 | 6.0 | 14.0 | 0.00 | 0.00 | 0.00 | 23 | 1012.1 |
| 20260504011051 | 64 | 50 | 6.0 | 14.0 | 0.00 | 0.00 | 0.00 | 23 | 1012.1 |
| 20260504010516 | 64 | 74 | 7.0 | 16.0 | 0.00 | 0.00 | 0.00 | 23 | 1012.1 |
| 20260504010018 | 65 | 44 | 9.0 | 16.0 | 0.00 | 0.00 | 0.00 | 22 | 1012.0 |
| 20260504005526 | 65 | 85 | 7.0 | 14.0 | 0.00 | 0.00 | 0.00 | 22 | 1012.0 |
| 20260504005027 | 66 | 65 | 8.0 | 18.0 | 0.00 | 0.00 | 0.00 | 21 | 1012.0 |
| 20260504004529 | 66 | 45 | 10.0 | 21.0 | 0.00 | 0.00 | 0.00 | 21 | 1012.0 |
| 20260504004012 | 67 | 33 | 8.0 | 21.0 | 0.00 | 0.00 | 0.00 | 18 | 1011.8 |
| 20260504003543 | 68 | 334 | 13.0 | 22.0 | 0.00 | 0.00 | 0.00 | 14 | 1011.8 |
| 20260504003026 | 68 | 341 | 12.0 | 22.0 | 0.00 | 0.00 | 0.00 | 14 | 1011.9 |
| 20260504002512 | 68 | 358 | 11.0 | 22.0 | 0.00 | 0.00 | 0.00 | 14 | 1011.9 |
| 20260504002015 | 68 | 328 | 10.0 | 19.0 | 0.00 | 0.00 | 0.00 | 15 | 1011.8 |
| 20260504001542 | 68 | 343 | 13.0 | 19.0 | 0.00 | 0.00 | 0.00 | 14 | 1011.9 |
| 20260504001032 | 68 | 311 | 12.0 | 18.0 | 0.00 | 0.00 | 0.00 | 15 | 1011.9 |
| 20260504000519 | 67 | 328 | 9.0 | 20.0 | 0.00 | 0.00 | 0.00 | 15 | 1012.0 |
| 20260504000037 | 68 | 20 | 15.0 | 20.0 | 0.00 | 0.00 | 0.00 | 14 | 1011.8 |
| 20260503235524 | 68 | 357 | 9.0 | 18.0 | 0.00 | 0.00 | 0.00 | 15 | 1011.9 |
| 20260503235052 | 68 | 327 | 11.0 | 18.0 | 0.00 | 0.00 | 0.00 | 15 | 1011.9 |
| 20260503234513 | 68 | 336 | 10.0 | 17.0 | 0.00 | 0.00 | 0.00 | 13 | 1011.9 |
| 20260503234014 | 69 | 330 | 10.0 | 17.0 | 0.00 | 0.00 | 0.00 | 13 | 1012.0 |
| 20260503233522 | 69 | 24 | 11.0 | 17.0 | 0.00 | 0.00 | 0.00 | 12 | 1011.9 |
| 20260503233025 | 70 | 311 | 10.0 | 17.0 | 0.00 | 0.00 | 0.00 | 12 | 1012.0 |
| 20260503232532 | 70 | 321 | 10.0 | 17.0 | 0.00 | 0.00 | 0.00 | 12 | 1012.0 |
| 20260503232013 | 69 | 321 | 10.0 | 17.0 | 0.00 | 0.00 | 0.00 | 12 | 1012.0 |